createdAt,value
2022-11-10T00:00:08.861Z,1.60
2022-11-10T00:02:35.086Z,1.53
2022-11-10T00:05:04.509Z,1.60
2022-11-10T00:07:30.739Z,1.77
2022-11-10T00:09:56.959Z,1.43
2022-11-10T00:12:23.219Z,1.70
2022-11-10T00:15:08.375Z,1.73
2022-11-10T00:17:37.427Z,1.40
2022-11-10T00:20:04.396Z,1.90
2022-11-10T00:22:30.607Z,1.70
2022-11-10T00:24:56.805Z,1.93
2022-11-10T00:27:23.041Z,1.47
2022-11-10T00:29:49.255Z,1.67
2022-11-10T00:32:15.484Z,1.50
2022-11-10T00:34:41.769Z,1.83
2022-11-10T00:37:07.997Z,1.87
2022-11-10T00:39:34.254Z,1.77
2022-11-10T00:42:00.530Z,1.80
2022-11-10T00:44:26.751Z,1.50
2022-11-10T00:46:52.969Z,1.30
2022-11-10T00:49:19.262Z,1.50
2022-11-10T00:51:45.480Z,1.80
2022-11-10T00:54:11.754Z,1.67
2022-11-10T00:56:37.967Z,1.67
2022-11-10T00:59:04.248Z,2.07
2022-11-10T01:01:30.528Z,1.70
2022-11-10T01:03:56.893Z,1.83
2022-11-10T01:06:23.145Z,1.53
2022-11-10T01:08:49.408Z,1.80
2022-11-10T01:11:20.560Z,1.83
2022-11-10T01:13:47.269Z,1.90
2022-11-10T01:16:15.254Z,1.50
2022-11-10T01:18:42.038Z,1.33
2022-11-10T01:21:08.398Z,1.53
2022-11-10T01:23:34.748Z,1.70
2022-11-10T01:26:02.613Z,1.50
2022-11-10T01:28:29.166Z,1.60
2022-11-10T01:30:58.972Z,1.63
2022-11-10T01:33:26.261Z,1.60
2022-11-10T01:35:52.748Z,1.73
2022-11-10T01:38:20.006Z,1.60
2022-11-10T01:40:46.316Z,1.60
2022-11-10T01:43:15.065Z,1.50
2022-11-10T01:45:46.159Z,1.53
2022-11-10T01:48:18.829Z,1.60
2022-11-10T01:50:46.630Z,2.17
2022-11-10T01:53:17.696Z,1.43
2022-11-10T01:55:44.991Z,1.70
2022-11-10T01:58:12.932Z,1.53
2022-11-10T02:00:39.178Z,1.60
2022-11-10T02:03:16.395Z,1.60
2022-11-10T02:05:43.335Z,1.83
2022-11-10T02:08:10.334Z,1.73
2022-11-10T02:10:37.299Z,1.60
2022-11-10T02:13:03.507Z,1.67
2022-11-10T02:15:29.791Z,1.77
2022-11-10T02:17:56.009Z,1.70
2022-11-10T02:20:22.244Z,2.10
2022-11-10T02:22:48.491Z,1.50
2022-11-10T02:25:17.340Z,1.80
2022-11-10T02:27:43.602Z,1.57
2022-11-10T02:30:10.055Z,1.80
2022-11-10T02:32:36.411Z,1.53
2022-11-10T02:35:02.858Z,1.73
2022-11-10T02:37:29.076Z,1.63
2022-11-10T02:39:55.285Z,1.50
2022-11-10T02:42:21.534Z,2.00
2022-11-10T02:44:47.747Z,1.57
2022-11-10T02:47:13.991Z,1.77
2022-11-10T02:49:40.204Z,1.73
2022-11-10T02:52:06.414Z,1.50
2022-11-10T02:54:32.648Z,1.80
2022-11-10T02:56:58.884Z,1.47
2022-11-10T02:59:25.138Z,1.63
2022-11-10T03:01:51.380Z,1.60
2022-11-10T03:04:17.599Z,1.50
2022-11-10T03:06:43.876Z,1.50
2022-11-10T03:09:10.129Z,1.50
2022-11-10T03:11:36.360Z,2.03
2022-11-10T03:14:02.976Z,1.70
2022-11-10T03:16:29.545Z,1.70
2022-11-10T03:18:55.942Z,1.90
2022-11-10T03:21:22.149Z,1.93
2022-11-10T03:23:48.371Z,1.70
2022-11-10T03:26:14.578Z,1.80
2022-11-10T03:28:40.795Z,1.80
2022-11-10T03:31:07.029Z,2.10
2022-11-10T03:33:33.281Z,2.20
2022-11-10T03:35:59.587Z,1.93
2022-11-10T03:38:25.813Z,2.57
2022-11-10T03:41:20.955Z,2.07
2022-11-10T03:43:38.220Z,2.03
2022-11-10T03:46:04.514Z,1.73
2022-11-10T03:48:30.764Z,2.33
2022-11-10T03:50:56.962Z,2.00
2022-11-10T03:53:23.674Z,1.97
2022-11-10T03:55:50.062Z,2.33
2022-11-10T03:58:16.300Z,2.33
2022-11-10T04:00:42.519Z,1.87
2022-11-10T04:03:08.763Z,2.10
2022-11-10T04:05:54.373Z,2.17
2022-11-10T04:08:39.427Z,2.40
2022-11-10T04:11:05.734Z,1.93
2022-11-10T04:13:50.440Z,1.73
2022-11-10T04:16:16.777Z,1.90
2022-11-10T04:18:42.992Z,3.13
2022-11-10T04:21:09.546Z,2.30
2022-11-10T04:23:36.204Z,2.07
2022-11-10T04:26:22.765Z,1.90
2022-11-10T04:28:50.096Z,2.40
2022-11-10T04:31:17.041Z,1.90
2022-11-10T04:33:44.463Z,1.70
2022-11-10T04:36:11.776Z,2.00
2022-11-10T04:38:38.522Z,2.00
2022-11-10T04:41:04.915Z,2.40
2022-11-10T04:43:31.287Z,1.80
2022-11-10T04:45:57.732Z,2.10
2022-11-10T04:48:24.146Z,1.87
2022-11-10T04:50:50.369Z,2.23
2022-11-10T04:53:16.601Z,2.10
2022-11-10T04:55:43.645Z,2.13
2022-11-10T04:58:10.248Z,2.10
2022-11-10T05:00:37.271Z,2.23
2022-11-10T05:03:04.684Z,2.03
2022-11-10T05:05:34.049Z,2.23
2022-11-10T05:08:00.806Z,2.43
2022-11-10T05:10:27.068Z,2.03
2022-11-10T05:12:54.627Z,1.90
2022-11-10T05:15:21.094Z,2.23
2022-11-10T05:17:50.898Z,2.20
2022-11-10T05:20:17.499Z,2.20
2022-11-10T05:22:48.835Z,2.67
2022-11-10T05:25:15.441Z,2.13
2022-11-10T05:27:41.657Z,2.03
2022-11-10T05:30:08.303Z,2.33
2022-11-10T05:32:36.243Z,2.20
2022-11-10T05:35:02.548Z,2.40
2022-11-10T05:37:28.772Z,2.40
2022-11-10T05:39:54.999Z,1.90
2022-11-10T05:42:21.231Z,2.03
2022-11-10T05:44:47.467Z,2.53
2022-11-10T05:47:13.687Z,2.60
2022-11-10T05:49:39.902Z,2.17
2022-11-10T05:52:06.118Z,2.50
2022-11-10T05:54:32.360Z,2.10
2022-11-10T05:56:58.570Z,2.90
2022-11-10T05:59:24.781Z,2.00
2022-11-10T06:01:51.324Z,3.07
2022-11-10T06:04:17.645Z,1.80
2022-11-10T06:06:43.946Z,2.50
2022-11-10T06:09:10.211Z,2.50
2022-11-10T06:11:36.452Z,2.90
2022-11-10T06:14:02.947Z,2.33
2022-11-10T06:16:29.199Z,2.37
2022-11-10T06:18:55.515Z,2.47
2022-11-10T06:21:21.734Z,2.20
2022-11-10T06:23:47.945Z,2.73
2022-11-10T06:26:14.162Z,2.00
2022-11-10T06:28:40.418Z,2.80
2022-11-10T06:31:06.653Z,2.73
2022-11-10T06:33:37.872Z,2.90
2022-11-10T06:36:04.122Z,2.70
2022-11-10T06:38:30.342Z,2.33
2022-11-10T06:40:56.550Z,2.60
2022-11-10T06:43:23.048Z,2.27
2022-11-10T06:45:49.411Z,2.80
2022-11-10T06:48:15.822Z,2.20
2022-11-10T06:50:42.168Z,2.30
2022-11-10T06:53:09.338Z,2.23
2022-11-10T06:55:35.547Z,2.37
2022-11-10T06:58:01.792Z,2.37
2022-11-10T07:00:28.846Z,2.40
2022-11-10T07:03:09.788Z,2.50
2022-11-10T07:05:36.572Z,2.40
2022-11-10T07:08:04.402Z,2.73
2022-11-10T07:10:30.675Z,2.50
2022-11-10T07:13:00.518Z,2.60
2022-11-10T07:15:26.843Z,2.13
2022-11-10T07:17:53.201Z,2.57
2022-11-10T07:20:19.464Z,2.90
2022-11-10T07:22:45.758Z,2.87
2022-11-10T07:25:12.166Z,2.97
2022-11-10T07:27:38.540Z,2.40
2022-11-10T07:30:05.471Z,2.80
2022-11-10T07:32:31.714Z,2.43
2022-11-10T07:34:58.032Z,2.83
2022-11-10T07:37:24.288Z,2.43
2022-11-10T07:39:50.541Z,2.90
2022-11-10T07:42:16.843Z,2.30
2022-11-10T07:44:43.118Z,2.73
2022-11-10T07:47:09.374Z,2.90
2022-11-10T07:49:35.619Z,3.70
2022-11-10T07:52:01.938Z,2.70
2022-11-10T07:54:28.175Z,3.10
2022-11-10T07:56:54.416Z,3.10
2022-11-10T07:59:20.705Z,3.37
2022-11-10T08:01:47.089Z,2.57
2022-11-10T08:04:13.555Z,2.83
2022-11-10T08:06:39.961Z,3.03
2022-11-10T08:09:06.353Z,2.70
2022-11-10T08:11:32.809Z,2.70
2022-11-10T08:13:59.175Z,2.90
2022-11-10T08:16:25.470Z,2.87
2022-11-10T08:18:51.788Z,2.50
2022-11-10T08:21:18.082Z,2.87
2022-11-10T08:23:44.609Z,3.17
2022-11-10T08:26:10.962Z,3.67
2022-11-10T08:28:37.250Z,3.03
2022-11-10T08:31:06.138Z,3.13
2022-11-10T08:33:32.707Z,3.03
2022-11-10T08:36:00.668Z,2.63
2022-11-10T08:38:26.897Z,2.90
2022-11-10T08:40:55.499Z,3.43
2022-11-10T08:43:21.959Z,2.90
2022-11-10T08:45:48.437Z,2.93
2022-11-10T08:48:16.326Z,2.73
2022-11-10T08:50:42.927Z,2.90
2022-11-10T08:53:17.113Z,3.43
2022-11-10T08:55:43.992Z,2.80
2022-11-10T08:58:13.923Z,3.10
2022-11-10T09:00:40.152Z,2.57
2022-11-10T09:03:12.079Z,2.57
2022-11-10T09:05:38.457Z,2.53
2022-11-10T09:08:04.776Z,2.70
2022-11-10T09:10:31.475Z,2.77
2022-11-10T09:13:01.418Z,2.37
2022-11-10T09:15:27.896Z,2.67
2022-11-10T09:17:54.126Z,2.60
2022-11-10T09:20:20.354Z,2.90
2022-11-10T09:22:46.633Z,2.63
2022-11-10T09:25:12.838Z,3.20
2022-11-10T09:27:39.115Z,2.20
2022-11-10T09:30:06.258Z,3.07
2022-11-10T09:32:33.202Z,2.77
2022-11-10T09:34:59.944Z,2.70
2022-11-10T09:37:26.702Z,2.90
2022-11-10T09:39:52.977Z,2.87
2022-11-10T09:42:25.988Z,3.03
2022-11-10T09:44:54.810Z,3.20
2022-11-10T09:47:55.772Z,2.87
2022-11-10T09:50:21.146Z,3.40
2022-11-10T09:52:49.171Z,2.80
2022-11-10T09:55:26.864Z,3.13
2022-11-10T09:57:55.264Z,2.80
2022-11-10T10:00:21.555Z,2.80
2022-11-10T10:02:56.038Z,2.73
2022-11-10T10:05:41.366Z,2.80
2022-11-10T10:08:10.719Z,2.90
2022-11-10T10:10:44.524Z,2.40
2022-11-10T10:13:10.727Z,2.90
2022-11-10T10:15:36.924Z,2.87
2022-11-10T10:18:03.112Z,2.80
2022-11-10T10:20:29.370Z,3.00
2022-11-10T10:22:59.969Z,2.90
2022-11-10T10:25:27.652Z,3.20
2022-11-10T10:28:04.625Z,2.60
2022-11-10T10:30:30.971Z,3.17
2022-11-10T10:33:00.360Z,2.77
2022-11-10T10:35:27.942Z,2.57
2022-11-10T10:37:57.356Z,2.50
2022-11-10T10:40:24.317Z,2.60
2022-11-10T10:42:50.812Z,2.50
2022-11-10T10:45:20.676Z,3.03
2022-11-10T10:47:48.138Z,2.37
2022-11-10T10:50:25.946Z,2.30
2022-11-10T10:53:12.977Z,2.43
2022-11-10T10:55:44.444Z,2.83
2022-11-10T10:58:23.898Z,2.60
2022-11-10T11:01:03.646Z,2.50
2022-11-10T11:03:38.542Z,2.67
2022-11-10T11:06:06.956Z,2.50
2022-11-10T11:08:34.338Z,2.83
2022-11-10T11:11:08.269Z,2.40
2022-11-10T11:13:35.306Z,3.00
2022-11-10T11:16:02.927Z,2.77
2022-11-10T11:18:30.668Z,2.30
2022-11-10T11:21:15.060Z,2.67
2022-11-10T11:23:49.666Z,3.00
2022-11-10T11:26:19.699Z,2.90
2022-11-10T11:28:54.940Z,2.63
2022-11-10T11:31:42.897Z,2.53
2022-11-10T11:34:12.401Z,2.27
2022-11-10T11:36:44.926Z,2.63
2022-11-10T11:39:25.836Z,2.10
2022-11-10T11:42:10.579Z,2.40
2022-11-10T11:44:37.878Z,2.60
2022-11-10T11:47:04.126Z,2.27
2022-11-10T11:49:30.362Z,2.23
2022-11-10T11:52:07.921Z,2.47
2022-11-10T11:54:58.948Z,2.47
2022-11-10T11:57:41.838Z,2.17
2022-11-10T12:00:08.069Z,2.10
2022-11-10T12:02:53.567Z,2.50
2022-11-10T12:05:42.928Z,2.40
2022-11-10T12:08:26.090Z,2.37
2022-11-10T12:10:58.996Z,2.50
2022-11-10T12:13:34.455Z,2.27
2022-11-10T12:16:04.923Z,2.47
2022-11-10T12:18:33.686Z,2.77
2022-11-10T12:21:20.258Z,2.53
2022-11-10T12:23:53.150Z,2.10
2022-11-10T12:26:27.365Z,2.37
2022-11-10T12:29:26.154Z,2.20
2022-11-10T12:31:54.896Z,2.57
2022-11-10T12:34:28.728Z,2.43
2022-11-10T12:36:56.533Z,2.27
2022-11-10T12:39:32.200Z,2.10
2022-11-10T12:41:59.211Z,2.30
2022-11-10T12:44:32.448Z,2.17
2022-11-10T12:47:01.930Z,2.13
2022-11-10T12:49:28.117Z,2.50
2022-11-10T12:52:03.158Z,2.10
2022-11-10T12:54:29.547Z,1.93
2022-11-10T12:57:02.017Z,2.27
2022-11-10T12:59:29.904Z,2.10
2022-11-10T13:01:58.657Z,2.40
2022-11-10T13:04:25.006Z,2.33
2022-11-10T13:06:56.599Z,1.87
2022-11-10T13:09:43.135Z,1.90
2022-11-10T13:12:22.415Z,2.27
2022-11-10T13:14:49.197Z,2.27
2022-11-10T13:17:28.238Z,2.10
2022-11-10T13:19:57.046Z,2.37
2022-11-10T13:22:36.962Z,2.10
2022-11-10T13:25:22.144Z,2.40
2022-11-10T13:27:48.349Z,1.97
2022-11-10T13:30:34.536Z,2.17
2022-11-10T13:33:19.269Z,2.53
2022-11-10T13:35:54.727Z,1.97
2022-11-10T13:38:35.338Z,2.20
2022-11-10T13:41:17.965Z,2.03
2022-11-10T13:43:48.754Z,2.00
2022-11-10T13:46:15.070Z,2.00
2022-11-10T13:48:45.711Z,2.60
2022-11-10T13:51:21.685Z,2.10
2022-11-10T13:54:05.240Z,1.80
2022-11-10T13:56:32.733Z,2.17
2022-11-10T13:58:59.251Z,2.17
2022-11-10T14:01:28.392Z,2.20
2022-11-10T14:03:57.369Z,1.60
2022-11-10T14:06:45.027Z,2.23
2022-11-10T14:09:27.011Z,2.47
2022-11-10T14:11:58.858Z,1.90
2022-11-10T14:14:28.775Z,1.97
2022-11-10T14:16:56.524Z,1.97
2022-11-10T14:19:31.368Z,2.30
2022-11-10T14:22:01.818Z,2.00
2022-11-10T14:24:30.465Z,2.13
2022-11-10T14:26:58.083Z,2.40
2022-11-10T14:29:27.146Z,2.03
2022-11-10T14:31:53.446Z,1.90
2022-11-10T14:34:19.964Z,2.00
2022-11-10T14:36:56.200Z,1.80
2022-11-10T14:39:26.500Z,2.30
2022-11-10T14:41:53.782Z,1.83
2022-11-10T14:44:22.143Z,2.10
2022-11-10T14:46:48.435Z,1.77
2022-11-10T14:49:20.574Z,2.20
2022-11-10T14:51:46.841Z,1.70
2022-11-10T14:54:16.959Z,2.13
2022-11-10T14:56:43.235Z,2.23
2022-11-10T14:59:11.243Z,1.90
2022-11-10T15:01:42.237Z,2.10
2022-11-10T15:04:10.792Z,2.43
2022-11-10T15:06:37.349Z,2.43
2022-11-10T15:09:14.048Z,1.97
2022-11-10T15:11:47.230Z,2.07
2022-11-10T15:14:45.954Z,2.13
2022-11-10T15:17:14.615Z,1.90
2022-11-10T15:19:43.930Z,1.70
2022-11-10T15:22:13.727Z,1.77
2022-11-10T15:24:41.186Z,2.03
2022-11-10T15:27:12.251Z,1.90
2022-11-10T15:29:38.475Z,2.17
2022-11-10T15:32:12.717Z,2.20
2022-11-10T15:34:43.502Z,1.90
2022-11-10T15:37:23.105Z,2.00
2022-11-10T15:39:52.937Z,2.40
2022-11-10T15:42:21.397Z,2.20
2022-11-10T15:44:48.033Z,1.90
2022-11-10T15:47:15.013Z,2.20
2022-11-10T15:49:41.922Z,2.50
2022-11-10T15:52:13.803Z,2.00
2022-11-10T15:54:40.201Z,2.97
2022-11-10T15:57:13.503Z,2.87
2022-11-10T15:59:39.766Z,2.37
2022-11-10T16:02:18.946Z,2.60
2022-11-10T16:04:45.431Z,3.00
2022-11-10T16:07:11.781Z,2.50
2022-11-10T16:09:38.132Z,3.30
2022-11-10T16:12:04.470Z,2.83
2022-11-10T16:14:30.737Z,3.30
2022-11-10T16:16:56.988Z,2.60
2022-11-10T16:19:23.555Z,3.07
2022-11-10T16:21:49.781Z,2.70
2022-11-10T16:24:16.034Z,3.10
2022-11-10T16:26:42.294Z,2.87
2022-11-10T16:29:14.096Z,2.93
2022-11-10T16:31:40.403Z,2.47
2022-11-10T16:34:10.289Z,3.40
2022-11-10T16:36:36.546Z,2.93
2022-11-10T16:39:03.695Z,3.20
2022-11-10T16:41:29.936Z,3.00
2022-11-10T16:43:56.170Z,3.43
2022-11-10T16:46:23.402Z,2.93
2022-11-10T16:48:50.637Z,3.30
2022-11-10T16:51:17.990Z,3.10
2022-11-10T16:53:44.392Z,3.07
2022-11-10T16:56:16.744Z,3.00
2022-11-10T16:58:43.004Z,3.13
2022-11-10T17:01:19.195Z,3.03
2022-11-10T17:03:48.201Z,3.20
2022-11-10T17:06:15.009Z,3.70
2022-11-10T17:08:41.445Z,3.10
2022-11-10T17:11:08.034Z,3.37
2022-11-10T17:13:34.280Z,3.50
2022-11-10T17:16:05.251Z,3.10
2022-11-10T17:18:32.181Z,3.87
2022-11-10T17:20:58.487Z,3.40
2022-11-10T17:23:25.854Z,3.30
2022-11-10T17:25:54.033Z,3.03
2022-11-10T17:28:20.588Z,3.20
2022-11-10T17:30:47.135Z,3.73
2022-11-10T17:33:13.490Z,3.70
2022-11-10T17:35:44.637Z,3.60
2022-11-10T17:38:12.168Z,3.80
2022-11-10T17:40:40.347Z,3.63
2022-11-10T17:43:08.657Z,3.83
2022-11-10T17:45:34.882Z,4.10
2022-11-10T17:48:01.131Z,3.87
2022-11-10T17:50:27.451Z,3.70
2022-11-10T17:52:53.901Z,3.70
2022-11-10T17:55:21.955Z,3.73
2022-11-10T17:57:48.573Z,3.70
2022-11-10T18:00:16.236Z,3.90
2022-11-10T18:02:43.019Z,3.67
2022-11-10T18:05:24.729Z,3.40
2022-11-10T18:07:51.451Z,3.77
2022-11-10T18:10:17.916Z,3.07
2022-11-10T18:12:44.292Z,3.37
2022-11-10T18:15:12.533Z,3.53
2022-11-10T18:17:38.891Z,3.47
2022-11-10T18:20:05.314Z,3.60
2022-11-10T18:22:31.615Z,3.40
2022-11-10T18:24:57.861Z,3.57
2022-11-10T18:27:25.459Z,3.83
2022-11-10T18:29:51.731Z,3.43
2022-11-10T18:32:18.020Z,3.57
2022-11-10T18:34:44.234Z,3.00
2022-11-10T18:37:10.832Z,3.30
2022-11-10T18:39:37.097Z,3.43
2022-11-10T18:42:03.607Z,3.73
2022-11-10T18:44:30.787Z,3.30
2022-11-10T18:46:57.181Z,4.00
2022-11-10T18:49:23.404Z,3.07
2022-11-10T18:51:50.774Z,3.40
2022-11-10T18:54:17.006Z,4.03
2022-11-10T18:56:43.223Z,3.17
2022-11-10T18:59:09.541Z,3.67
2022-11-10T19:01:35.798Z,3.43
2022-11-10T19:04:02.315Z,3.50
2022-11-10T19:06:28.547Z,3.40
2022-11-10T19:08:55.509Z,3.50
2022-11-10T19:11:22.639Z,3.37
2022-11-10T19:13:50.026Z,3.60
2022-11-10T19:16:17.504Z,3.50
2022-11-10T19:18:44.232Z,3.43
2022-11-10T19:21:11.791Z,3.77
2022-11-10T19:23:38.054Z,3.40
2022-11-10T19:26:11.670Z,4.47
2022-11-10T19:28:38.267Z,3.37
2022-11-10T19:31:09.451Z,3.73
2022-11-10T19:33:36.368Z,3.70
2022-11-10T19:36:03.946Z,3.47
2022-11-10T19:38:30.244Z,3.80
2022-11-10T19:40:56.515Z,3.77
2022-11-10T19:43:22.974Z,4.23
2022-11-10T19:45:49.409Z,3.73
2022-11-10T19:48:15.639Z,3.93
2022-11-10T19:50:46.532Z,3.60
2022-11-10T19:53:15.951Z,3.73
2022-11-10T19:55:42.166Z,3.60
2022-11-10T19:58:08.397Z,3.60
2022-11-10T20:00:34.609Z,3.57
2022-11-10T20:03:00.860Z,3.33
2022-11-10T20:05:27.210Z,3.63
2022-11-10T20:08:12.725Z,3.80
2022-11-10T20:10:39.956Z,3.47
2022-11-10T20:13:06.615Z,3.93
2022-11-10T20:15:33.259Z,3.70
2022-11-10T20:17:59.547Z,3.47
2022-11-10T20:20:25.780Z,3.27
2022-11-10T20:22:52.014Z,2.97
2022-11-10T20:25:18.264Z,3.30
2022-11-10T20:27:44.779Z,3.60
2022-11-10T20:30:11.107Z,3.23
2022-11-10T20:32:37.384Z,3.53
2022-11-10T20:35:03.827Z,3.10
2022-11-10T20:37:33.416Z,3.67
2022-11-10T20:39:59.878Z,3.57
2022-11-10T20:42:26.121Z,3.40
2022-11-10T20:44:52.381Z,3.87
2022-11-10T20:47:18.611Z,3.50
2022-11-10T20:49:44.903Z,3.23
2022-11-10T20:52:11.150Z,3.70
2022-11-10T20:54:37.803Z,3.67
2022-11-10T20:57:04.080Z,3.20
2022-11-10T20:59:30.351Z,3.40
2022-11-10T21:01:56.634Z,3.40
2022-11-10T21:04:23.025Z,4.03
2022-11-10T21:06:49.303Z,3.30
2022-11-10T21:09:16.436Z,2.80
2022-11-10T21:12:01.392Z,3.57
2022-11-10T21:14:28.337Z,2.90
2022-11-10T21:16:54.589Z,2.87
2022-11-10T21:19:20.809Z,3.27
2022-11-10T21:21:47.092Z,3.60
2022-11-10T21:24:13.383Z,2.80
2022-11-10T21:26:41.098Z,3.17
2022-11-10T21:29:11.565Z,3.17
2022-11-10T21:31:37.900Z,3.17
2022-11-10T21:34:04.216Z,3.50
2022-11-10T21:36:31.208Z,3.10
2022-11-10T21:38:57.951Z,3.37
2022-11-10T21:41:24.748Z,3.40
2022-11-10T21:43:51.100Z,3.17
2022-11-10T21:46:17.772Z,3.20
2022-11-10T21:48:44.009Z,2.67
2022-11-10T21:51:10.994Z,3.43
2022-11-10T21:53:39.034Z,3.63
2022-11-10T21:56:06.749Z,3.50
2022-11-10T21:58:33.602Z,3.50
2022-11-10T22:01:03.715Z,3.10
2022-11-10T22:03:30.488Z,3.47
2022-11-10T22:06:02.789Z,3.23
2022-11-10T22:08:29.304Z,3.00
2022-11-10T22:11:27.718Z,3.00
2022-11-10T22:14:12.749Z,3.53
2022-11-10T22:17:02.467Z,3.33
2022-11-10T22:19:28.703Z,3.17
2022-11-10T22:21:57.306Z,3.10
2022-11-10T22:24:28.836Z,3.00
2022-11-10T22:26:55.989Z,3.00
2022-11-10T22:29:26.093Z,2.90
2022-11-10T22:31:54.856Z,2.77
2022-11-10T22:34:21.311Z,3.00
2022-11-10T22:36:49.998Z,2.60
2022-11-10T22:39:16.390Z,3.60
2022-11-10T22:42:01.434Z,3.20
2022-11-10T22:44:27.681Z,2.80
2022-11-10T22:46:53.938Z,3.33
2022-11-10T22:49:21.235Z,3.53
2022-11-10T22:51:56.358Z,3.10
2022-11-10T22:54:23.563Z,3.30
2022-11-10T22:56:50.988Z,2.97
2022-11-10T22:59:17.631Z,2.63
2022-11-10T23:01:44.142Z,3.13
2022-11-10T23:04:11.391Z,2.97
2022-11-10T23:06:38.867Z,3.10
2022-11-10T23:09:05.586Z,2.90
2022-11-10T23:11:32.503Z,2.50
2022-11-10T23:13:58.809Z,3.03
2022-11-10T23:16:26.426Z,3.10
2022-11-10T23:18:53.707Z,3.57
2022-11-10T23:21:21.449Z,3.23
2022-11-10T23:23:48.240Z,3.10
2022-11-10T23:26:15.675Z,3.73
2022-11-10T23:28:42.203Z,3.13
2022-11-10T23:31:13.500Z,3.00
2022-11-10T23:33:40.462Z,3.17
2022-11-10T23:36:07.542Z,2.53
2022-11-10T23:38:34.922Z,3.00
2022-11-10T23:41:01.576Z,3.37
2022-11-10T23:43:28.260Z,2.90
2022-11-10T23:46:10.062Z,3.10
2022-11-10T23:48:36.843Z,3.30
2022-11-10T23:51:03.868Z,2.73
2022-11-10T23:53:30.227Z,4.03
2022-11-10T23:56:00.548Z,3.20
2022-11-10T23:58:27.079Z,3.23
